Terminal Aerodrome Forecast
Issued by NWS Grand Junction, CO

Home | Current Version | Previous Version | Text Only | Print | Product List | Glossary On
Versions: 1 2 3 4 5 6 7 8 9 10 11 12
000
FTUS45 KGJT 311126
TAFGJT
TAF
KGJT 311126Z 3112/0112 16008KT P6SM SCT250
     FM311800 25007KT P6SM FEW250
     FM312000 29007KT P6SM FEW110 SCT250
     FM010000 33011KT P6SM FEW250
     FM010100 01011KT P6SM FEW250
     FM010600 21007KT P6SM FEW250=

USA.gov is the U.S. government's official web portal to all federal, state and local government web resources and services.